sensor_id;sensor_type;location;lat;lon;timestamp;pressure;altitude;pressure_sealevel;temperature;humidity
28267;BME280;15525;45.568;5.448;2023-07-13T00:01:05;98141.84;;;25.44;53.24
28267;BME280;15525;45.568;5.448;2023-07-13T00:03:31;98140.16;;;25.40;53.65
28267;BME280;15525;45.568;5.448;2023-07-13T00:06:00;98140.91;;;25.37;53.67
28267;BME280;15525;45.568;5.448;2023-07-13T00:08:26;98138.00;;;25.49;53.08
28267;BME280;15525;45.568;5.448;2023-07-13T00:10:52;98137.13;;;25.45;53.26
28267;BME280;15525;45.568;5.448;2023-07-13T00:13:19;98137.13;;;25.45;53.24
28267;BME280;15525;45.568;5.448;2023-07-13T00:15:45;98145.84;;;25.28;53.48
28267;BME280;15525;45.568;5.448;2023-07-13T00:18:10;98154.81;;;24.90;54.50
28267;BME280;15525;45.568;5.448;2023-07-13T00:20:36;98152.34;;;25.04;54.24
28267;BME280;15525;45.568;5.448;2023-07-13T00:23:01;98143.56;;;24.95;54.58
28267;BME280;15525;45.568;5.448;2023-07-13T00:25:27;98144.91;;;24.86;55.08
28267;BME280;15525;45.568;5.448;2023-07-13T00:27:55;98138.31;;;24.87;54.68
28267;BME280;15525;45.568;5.448;2023-07-13T00:30:21;98143.13;;;24.93;54.50
28267;BME280;15525;45.568;5.448;2023-07-13T00:32:47;98142.59;;;24.69;55.36
28267;BME280;15525;45.568;5.448;2023-07-13T00:35:14;98148.09;;;24.69;55.35
28267;BME280;15525;45.568;5.448;2023-07-13T00:37:40;98147.22;;;24.65;55.65
28267;BME280;15525;45.568;5.448;2023-07-13T00:40:06;98152.88;;;24.56;55.68
28267;BME280;15525;45.568;5.448;2023-07-13T00:42:32;98146.13;;;24.54;55.75
28267;BME280;15525;45.568;5.448;2023-07-13T00:47:31;98152.72;;;24.84;55.12
28267;BME280;15525;45.568;5.448;2023-07-13T00:49:56;98149.25;;;24.87;54.80
28267;BME280;15525;45.568;5.448;2023-07-13T00:52:22;98150.59;;;24.27;55.90
28267;BME280;15525;45.568;5.448;2023-07-13T00:54:48;98145.34;;;24.53;55.37
28267;BME280;15525;45.568;5.448;2023-07-13T00:57:17;98153.16;;;24.36;55.41
28267;BME280;15525;45.568;5.448;2023-07-13T00:59:47;98141.38;;;24.51;54.98
28267;BME280;15525;45.568;5.448;2023-07-13T01:02:13;98143.56;;;24.11;55.88
28267;BME280;15525;45.568;5.448;2023-07-13T01:04:39;98150.53;;;24.24;55.38
28267;BME280;15525;45.568;5.448;2023-07-13T01:07:06;98161.91;;;24.26;54.97
28267;BME280;15525;45.568;5.448;2023-07-13T01:09:31;98159.34;;;24.33;54.40
28267;BME280;15525;45.568;5.448;2023-07-13T01:11:57;98164.88;;;24.52;54.10
28267;BME280;15525;45.568;5.448;2023-07-13T01:14:23;98164.38;;;24.31;53.99
28267;BME280;15525;45.568;5.448;2023-07-13T01:16:49;98146.41;;;24.64;53.44
28267;BME280;15525;45.568;5.448;2023-07-13T01:19:43;98164.34;;;24.46;53.29
28267;BME280;15525;45.568;5.448;2023-07-13T01:22:16;98158.75;;;24.74;52.75
28267;BME280;15525;45.568;5.448;2023-07-13T01:24:44;98149.13;;;24.64;52.47
28267;BME280;15525;45.568;5.448;2023-07-13T01:27:13;98167.06;;;24.62;52.75
28267;BME280;15525;45.568;5.448;2023-07-13T01:29:39;98161.47;;;24.39;53.21
28267;BME280;15525;45.568;5.448;2023-07-13T01:32:14;98167.09;;;24.81;52.24
28267;BME280;15525;45.568;5.448;2023-07-13T01:34:40;98159.19;;;24.76;51.88
28267;BME280;15525;45.568;5.448;2023-07-13T01:37:08;98164.25;;;25.12;51.26
28267;BME280;15525;45.568;5.448;2023-07-13T01:39:34;98155.44;;;25.22;51.03
28267;BME280;15525;45.568;5.448;2023-07-13T01:41:59;98162.44;;;24.81;51.36
28267;BME280;15525;45.568;5.448;2023-07-13T01:44:25;98168.72;;;25.01;51.01
28267;BME280;15525;45.568;5.448;2023-07-13T01:46:51;98154.72;;;25.25;50.79
28267;BME280;15525;45.568;5.448;2023-07-13T01:49:16;98155.47;;;25.03;50.11
28267;BME280;15525;45.568;5.448;2023-07-13T01:51:41;98154.88;;;24.94;50.44
28267;BME280;15525;45.568;5.448;2023-07-13T01:54:07;98152.34;;;25.23;50.05
28267;BME280;15525;45.568;5.448;2023-07-13T01:56:32;98163.75;;;25.25;49.93
28267;BME280;15525;45.568;5.448;2023-07-13T01:58:57;98149.25;;;24.87;48.64
28267;BME280;15525;45.568;5.448;2023-07-13T02:01:23;98156.53;;;24.79;49.80
28267;BME280;15525;45.568;5.448;2023-07-13T02:03:48;98160.22;;;24.87;49.69
28267;BME280;15525;45.568;5.448;2023-07-13T02:06:14;98163.56;;;24.61;49.27
28267;BME280;15525;45.568;5.448;2023-07-13T02:08:40;98158.03;;;24.77;49.06
28267;BME280;15525;45.568;5.448;2023-07-13T02:11:06;98150.63;;;24.96;49.35
28267;BME280;15525;45.568;5.448;2023-07-13T02:13:31;98162.28;;;24.74;49.07
28267;BME280;15525;45.568;5.448;2023-07-13T02:15:56;98147.81;;;24.74;48.83
28267;BME280;15525;45.568;5.448;2023-07-13T02:18:22;98155.91;;;24.36;49.84
28267;BME280;15525;45.568;5.448;2023-07-13T02:20:47;98153.56;;;24.69;49.22
28267;BME280;15525;45.568;5.448;2023-07-13T02:23:13;98145.88;;;24.59;49.49
28267;BME280;15525;45.568;5.448;2023-07-13T02:25:38;98141.47;;;24.54;49.34
28267;BME280;15525;45.568;5.448;2023-07-13T02:28:04;98141.53;;;24.58;49.49
28267;BME280;15525;45.568;5.448;2023-07-13T02:30:29;98135.72;;;24.59;49.24
28267;BME280;15525;45.568;5.448;2023-07-13T02:32:56;98140.75;;;24.92;48.76
28267;BME280;15525;45.568;5.448;2023-07-13T02:35:22;98145.34;;;24.69;48.97
28267;BME280;15525;45.568;5.448;2023-07-13T02:37:47;98152.13;;;24.75;48.30
28267;BME280;15525;45.568;5.448;2023-07-13T02:40:13;98148.41;;;24.33;49.06
28267;BME280;15525;45.568;5.448;2023-07-13T02:42:39;98156.50;;;24.45;49.01
28267;BME280;15525;45.568;5.448;2023-07-13T02:45:05;98144.41;;;24.80;48.23
28267;BME280;15525;45.568;5.448;2023-07-13T02:47:32;98149.44;;;24.28;48.96
28267;BME280;15525;45.568;5.448;2023-07-13T02:49:57;98151.34;;;24.59;48.58
28267;BME280;15525;45.568;5.448;2023-07-13T02:52:23;98178.25;;;24.22;49.86
28267;BME280;15525;45.568;5.448;2023-07-13T02:54:48;98183.00;;;24.41;49.68
28267;BME280;15525;45.568;5.448;2023-07-13T02:57:14;98184.34;;;24.16;50.56
28267;BME280;15525;45.568;5.448;2023-07-13T02:59:39;98187.78;;;24.13;50.52
28267;BME280;15525;45.568;5.448;2023-07-13T03:02:04;98188.16;;;24.27;50.61
28267;BME280;15525;45.568;5.448;2023-07-13T03:04:30;98193.06;;;24.06;51.22
28267;BME280;15525;45.568;5.448;2023-07-13T03:06:55;98204.28;;;24.01;51.58
28267;BME280;15525;45.568;5.448;2023-07-13T03:09:23;98232.59;;;23.38;53.73
28267;BME280;15525;45.568;5.448;2023-07-13T03:11:49;98230.22;;;22.85;55.52
28267;BME280;15525;45.568;5.448;2023-07-13T03:14:14;98232.41;;;22.67;56.66
28267;BME280;15525;45.568;5.448;2023-07-13T03:16:40;98241.16;;;22.61;57.14
28267;BME280;15525;45.568;5.448;2023-07-13T03:19:05;98241.72;;;22.78;57.29
28267;BME280;15525;45.568;5.448;2023-07-13T03:21:31;98237.72;;;22.40;58.45
28267;BME280;15525;45.568;5.448;2023-07-13T03:23:56;98243.22;;;22.64;58.46
28267;BME280;15525;45.568;5.448;2023-07-13T03:26:22;98239.34;;;22.53;59.21
28267;BME280;15525;45.568;5.448;2023-07-13T03:28:48;98251.72;;;22.50;59.42
28267;BME280;15525;45.568;5.448;2023-07-13T03:31:22;98251.56;;;22.23;60.69
28267;BME280;15525;45.568;5.448;2023-07-13T03:33:48;98250.22;;;22.17;61.23
28267;BME280;15525;45.568;5.448;2023-07-13T03:36:20;98260.94;;;21.89;61.74
28267;BME280;15525;45.568;5.448;2023-07-13T03:38:51;98266.50;;;21.81;62.33
28267;BME280;15525;45.568;5.448;2023-07-13T03:41:17;98269.09;;;21.77;62.26
28267;BME280;15525;45.568;5.448;2023-07-13T03:43:43;98268.56;;;21.43;63.78
28267;BME280;15525;45.568;5.448;2023-07-13T03:46:09;98271.88;;;21.48;63.98
28267;BME280;15525;45.568;5.448;2023-07-13T03:48:35;98264.44;;;21.37;64.36
28267;BME280;15525;45.568;5.448;2023-07-13T03:51:00;98263.88;;;21.64;63.98
28267;BME280;15525;45.568;5.448;2023-07-13T03:53:26;98258.00;;;21.62;63.78
28267;BME280;15525;45.568;5.448;2023-07-13T03:55:51;98278.91;;;21.49;64.38
28267;BME280;15525;45.568;5.448;2023-07-13T03:58:44;98282.34;;;21.26;65.88
28267;BME280;15525;45.568;5.448;2023-07-13T04:01:10;98289.03;;;21.28;65.66
28267;BME280;15525;45.568;5.448;2023-07-13T04:03:36;98287.44;;;21.07;66.26
28267;BME280;15525;45.568;5.448;2023-07-13T04:06:03;98291.75;;;21.08;66.66
28267;BME280;15525;45.568;5.448;2023-07-13T04:08:31;98291.25;;;21.35;65.22
28267;BME280;15525;45.568;5.448;2023-07-13T04:10:57;98282.03;;;21.80;63.63
28267;BME280;15525;45.568;5.448;2023-07-13T04:13:22;98289.97;;;21.53;63.99
28267;BME280;15525;45.568;5.448;2023-07-13T04:15:48;98294.63;;;21.32;64.25
28267;BME280;15525;45.568;5.448;2023-07-13T04:18:14;98287.97;;;21.00;64.19
28267;BME280;15525;45.568;5.448;2023-07-13T04:20:39;98298.97;;;21.04;64.80
28267;BME280;15525;45.568;5.448;2023-07-13T04:23:05;98310.38;;;20.68;65.76
28267;BME280;15525;45.568;5.448;2023-07-13T04:25:30;98294.88;;;20.60;66.54
28267;BME280;15525;45.568;5.448;2023-07-13T04:27:56;98310.78;;;20.78;66.42
28267;BME280;15525;45.568;5.448;2023-07-13T04:30:21;98316.91;;;20.75;66.19
28267;BME280;15525;45.568;5.448;2023-07-13T04:32:48;98313.50;;;20.78;66.71
28267;BME280;15525;45.568;5.448;2023-07-13T04:35:13;98323.38;;;20.92;66.05
28267;BME280;15525;45.568;5.448;2023-07-13T04:37:40;98317.13;;;21.41;64.91
28267;BME280;15525;45.568;5.448;2023-07-13T04:40:06;98294.19;;;21.83;63.81
28267;BME280;15525;45.568;5.448;2023-07-13T04:42:32;98316.78;;;22.16;62.95
28267;BME280;15525;45.568;5.448;2023-07-13T04:44:59;98316.34;;;22.14;61.95
28267;BME280;15525;45.568;5.448;2023-07-13T04:47:25;98319.41;;;21.59;63.38
28267;BME280;15525;45.568;5.448;2023-07-13T04:49:50;98307.38;;;21.60;63.50
28267;BME280;15525;45.568;5.448;2023-07-13T04:52:15;98305.94;;;21.95;63.04
28267;BME280;15525;45.568;5.448;2023-07-13T04:54:41;98306.50;;;21.89;62.86
28267;BME280;15525;45.568;5.448;2023-07-13T04:57:07;98314.84;;;21.72;63.29
28267;BME280;15525;45.568;5.448;2023-07-13T04:59:33;98322.81;;;21.77;63.58
28267;BME280;15525;45.568;5.448;2023-07-13T05:01:58;98314.69;;;21.89;63.10
28267;BME280;15525;45.568;5.448;2023-07-13T05:04:23;98311.88;;;21.15;65.07
28267;BME280;15525;45.568;5.448;2023-07-13T05:06:49;98316.81;;;21.22;65.02
28267;BME280;15525;45.568;5.448;2023-07-13T05:09:14;98320.16;;;21.48;64.81
28267;BME280;15525;45.568;5.448;2023-07-13T05:11:40;98321.22;;;21.67;64.49
28267;BME280;15525;45.568;5.448;2023-07-13T05:14:05;98331.03;;;21.48;63.85
28267;BME280;15525;45.568;5.448;2023-07-13T05:16:31;98340.13;;;21.52;64.44
28267;BME280;15525;45.568;5.448;2023-07-13T05:18:57;98333.34;;;21.58;64.53
28267;BME280;15525;45.568;5.448;2023-07-13T05:21:23;98336.41;;;21.56;63.81
28267;BME280;15525;45.568;5.448;2023-07-13T05:23:48;98325.59;;;22.01;63.56
28267;BME280;15525;45.568;5.448;2023-07-13T05:26:14;98320.25;;;22.37;62.66
28267;BME280;15525;45.568;5.448;2023-07-13T05:28:39;98333.84;;;22.25;61.23
28267;BME280;15525;45.568;5.448;2023-07-13T05:31:07;98343.19;;;21.91;61.50
28267;BME280;15525;45.568;5.448;2023-07-13T05:33:33;98333.16;;;22.16;61.57
28267;BME280;15525;45.568;5.448;2023-07-13T05:35:58;98323.16;;;22.20;61.17
28267;BME280;15525;45.568;5.448;2023-07-13T05:38:26;98323.41;;;22.39;61.15
28267;BME280;15525;45.568;5.448;2023-07-13T05:40:53;98327.13;;;22.10;61.32
28267;BME280;15525;45.568;5.448;2023-07-13T05:43:19;98338.72;;;21.87;62.29
28267;BME280;15525;45.568;5.448;2023-07-13T05:45:44;98328.75;;;21.91;62.14
28267;BME280;15525;45.568;5.448;2023-07-13T05:48:10;98337.25;;;21.77;62.31
28267;BME280;15525;45.568;5.448;2023-07-13T05:50:35;98328.94;;;22.06;62.08
28267;BME280;15525;45.568;5.448;2023-07-13T05:53:01;98338.09;;;22.34;62.21
28267;BME280;15525;45.568;5.448;2023-07-13T05:55:26;98331.34;;;22.64;61.80
28267;BME280;15525;45.568;5.448;2023-07-13T05:57:52;98319.84;;;22.83;61.17
28267;BME280;15525;45.568;5.448;2023-07-13T06:00:17;98336.78;;;23.00;60.19
28267;BME280;15525;45.568;5.448;2023-07-13T06:02:43;98340.81;;;22.91;60.44
28267;BME280;15525;45.568;5.448;2023-07-13T06:05:08;98339.44;;;22.73;61.02
28267;BME280;15525;45.568;5.448;2023-07-13T06:07:34;98338.94;;;22.71;61.12
28267;BME280;15525;45.568;5.448;2023-07-13T06:09:59;98350.81;;;22.99;61.50
28267;BME280;15525;45.568;5.448;2023-07-13T06:12:25;98344.09;;;22.84;61.50
28267;BME280;15525;45.568;5.448;2023-07-13T06:14:51;98360.59;;;22.76;62.18
28267;BME280;15525;45.568;5.448;2023-07-13T06:17:16;98355.59;;;22.90;61.97
28267;BME280;15525;45.568;5.448;2023-07-13T06:19:42;98361.94;;;22.94;60.93
28267;BME280;15525;45.568;5.448;2023-07-13T06:22:07;98369.13;;;22.98;62.23
28267;BME280;15525;45.568;5.448;2023-07-13T06:24:33;98362.34;;;23.68;60.78
28267;BME280;15525;45.568;5.448;2023-07-13T06:26:58;98364.56;;;23.38;58.79
28267;BME280;15525;45.568;5.448;2023-07-13T06:29:24;98360.13;;;23.46;59.79
28267;BME280;15525;45.568;5.448;2023-07-13T06:31:49;98367.63;;;23.49;59.46
28267;BME280;15525;45.568;5.448;2023-07-13T06:34:14;98373.78;;;23.85;59.66
28267;BME280;15525;45.568;5.448;2023-07-13T06:36:40;98371.78;;;24.10;58.69
28267;BME280;15525;45.568;5.448;2023-07-13T06:39:06;98372.34;;;24.31;58.25
28267;BME280;15525;45.568;5.448;2023-07-13T06:41:32;98369.31;;;24.05;57.70
28267;BME280;15525;45.568;5.448;2023-07-13T06:43:58;98371.09;;;24.13;57.28
28267;BME280;15525;45.568;5.448;2023-07-13T06:46:24;98370.50;;;23.92;57.82
28267;BME280;15525;45.568;5.448;2023-07-13T06:48:49;98373.59;;;24.18;57.00
28267;BME280;15525;45.568;5.448;2023-07-13T06:51:15;98371.47;;;23.72;57.30
28267;BME280;15525;45.568;5.448;2023-07-13T06:53:41;98367.06;;;23.83;57.88
28267;BME280;15525;45.568;5.448;2023-07-13T06:56:09;98379.34;;;23.89;57.80
28267;BME280;15525;45.568;5.448;2023-07-13T06:58:35;98371.78;;;24.10;56.68
28267;BME280;15525;45.568;5.448;2023-07-13T07:01:00;98376.97;;;23.99;57.07
28267;BME280;15525;45.568;5.448;2023-07-13T07:03:26;98376.78;;;23.80;56.73
28267;BME280;15525;45.568;5.448;2023-07-13T07:05:51;98371.88;;;23.86;56.02
28267;BME280;15525;45.568;5.448;2023-07-13T07:08:16;98375.47;;;24.02;56.50
28267;BME280;15525;45.568;5.448;2023-07-13T07:10:42;98381.34;;;24.16;56.07
28267;BME280;15525;45.568;5.448;2023-07-13T07:13:08;98390.94;;;24.10;55.66
28267;BME280;15525;45.568;5.448;2023-07-13T07:15:34;98383.72;;;24.45;55.70
28267;BME280;15525;45.568;5.448;2023-07-13T07:18:00;98397.09;;;24.07;55.27
28267;BME280;15525;45.568;5.448;2023-07-13T07:20:25;98395.75;;;23.49;55.90
28267;BME280;15525;45.568;5.448;2023-07-13T07:22:52;98397.09;;;24.07;53.80
28267;BME280;15525;45.568;5.448;2023-07-13T07:25:18;98396.53;;;24.56;54.13
28267;BME280;15525;45.568;5.448;2023-07-13T07:27:44;98395.41;;;25.04;53.04
28267;BME280;15525;45.568;5.448;2023-07-13T07:30:10;98400.28;;;24.95;51.36
28267;BME280;15525;45.568;5.448;2023-07-13T07:32:36;98391.28;;;24.79;49.82
28267;BME280;15525;45.568;5.448;2023-07-13T07:35:02;98401.25;;;25.18;51.26
28267;BME280;15525;45.568;5.448;2023-07-13T07:37:27;98392.25;;;25.33;49.45
28267;BME280;15525;45.568;5.448;2023-07-13T07:39:52;98396.84;;;24.98;50.99
28267;BME280;15525;45.568;5.448;2023-07-13T07:42:18;98392.31;;;25.21;49.96
28267;BME280;15525;45.568;5.448;2023-07-13T07:44:43;98399.50;;;25.10;50.81
28267;BME280;15525;45.568;5.448;2023-07-13T07:47:09;98382.94;;;25.37;49.21
28267;BME280;15525;45.568;5.448;2023-07-13T07:49:35;98381.09;;;25.95;48.56
28267;BME280;15525;45.568;5.448;2023-07-13T07:52:01;98389.47;;;25.48;49.02
28267;BME280;15525;45.568;5.448;2023-07-13T07:54:26;98390.94;;;25.11;48.97
28267;BME280;15525;45.568;5.448;2023-07-13T07:56:52;98393.75;;;24.68;50.20
28267;BME280;15525;45.568;5.448;2023-07-13T07:59:18;98385.25;;;25.04;50.74
28267;BME280;15525;45.568;5.448;2023-07-13T08:01:44;98388.78;;;25.20;49.42
28267;BME280;15525;45.568;5.448;2023-07-13T08:04:11;98401.00;;;25.73;47.68
28267;BME280;15525;45.568;5.448;2023-07-13T08:06:37;98388.84;;;26.50;46.59
28267;BME280;15525;45.568;5.448;2023-07-13T08:09:02;98397.25;;;25.46;47.71
28267;BME280;15525;45.568;5.448;2023-07-13T08:11:29;98385.31;;;25.73;48.60
28267;BME280;15525;45.568;5.448;2023-07-13T08:13:55;98392.81;;;26.52;47.44
28267;BME280;15525;45.568;5.448;2023-07-13T08:16:20;98378.25;;;26.48;45.65
28267;BME280;15525;45.568;5.448;2023-07-13T08:18:45;98387.41;;;25.80;46.92
28267;BME280;15525;45.568;5.448;2023-07-13T08:21:11;98388.06;;;25.73;48.96
28267;BME280;15525;45.568;5.448;2023-07-13T08:23:36;98376.13;;;25.47;49.16
28267;BME280;15525;45.568;5.448;2023-07-13T08:26:02;98396.84;;;25.63;47.68
28267;BME280;15525;45.568;5.448;2023-07-13T08:28:29;98375.59;;;26.33;46.76
28267;BME280;15525;45.568;5.448;2023-07-13T08:30:55;98387.03;;;26.16;45.73
28267;BME280;15525;45.568;5.448;2023-07-13T08:33:22;98396.53;;;26.82;46.67
28267;BME280;15525;45.568;5.448;2023-07-13T08:35:50;98395.63;;;27.46;44.68
28267;BME280;15525;45.568;5.448;2023-07-13T08:38:17;98398.44;;;27.23;45.31
28267;BME280;15525;45.568;5.448;2023-07-13T08:40:43;98392.69;;;26.87;45.60
28267;BME280;15525;45.568;5.448;2023-07-13T08:43:16;98388.44;;;26.48;45.88
28267;BME280;15525;45.568;5.448;2023-07-13T08:45:52;98402.88;;;26.64;46.64
28267;BME280;15525;45.568;5.448;2023-07-13T08:48:26;98395.06;;;27.59;44.64
28267;BME280;15525;45.568;5.448;2023-07-13T08:50:57;98387.06;;;27.51;43.18
28267;BME280;15525;45.568;5.448;2023-07-13T08:53:35;98395.75;;;26.59;44.15
28267;BME280;15525;45.568;5.448;2023-07-13T08:56:02;98399.44;;;26.29;45.27
28267;BME280;15525;45.568;5.448;2023-07-13T08:58:56;98399.66;;;27.26;45.09
28267;BME280;15525;45.568;5.448;2023-07-13T09:01:30;98403.19;;;25.48;48.15
28267;BME280;15525;45.568;5.448;2023-07-13T09:04:11;98395.44;;;25.88;46.44
28267;BME280;15525;45.568;5.448;2023-07-13T09:06:49;98390.25;;;27.04;45.52
28267;BME280;15525;45.568;5.448;2023-07-13T09:12:23;98402.94;;;27.61;43.91
28267;BME280;15525;45.568;5.448;2023-07-13T09:14:53;98401.19;;;28.38;43.44
28267;BME280;15525;45.568;5.448;2023-07-13T09:17:25;98410.38;;;28.46;41.97
28267;BME280;15525;45.568;5.448;2023-07-13T09:20:05;98409.88;;;28.73;41.98
28267;BME280;15525;45.568;5.448;2023-07-13T09:22:37;98409.25;;;28.50;41.81
28267;BME280;15525;45.568;5.448;2023-07-13T09:25:33;98407.59;;;27.83;43.03
28267;BME280;15525;45.568;5.448;2023-07-13T09:28:10;98418.16;;;26.84;44.11
28267;BME280;15525;45.568;5.448;2023-07-13T09:30:51;98406.94;;;26.32;44.97
28267;BME280;15525;45.568;5.448;2023-07-13T09:33:51;98417.78;;;26.63;44.88
28267;BME280;15525;45.568;5.448;2023-07-13T09:36:31;98412.66;;;27.55;43.73
28267;BME280;15525;45.568;5.448;2023-07-13T09:42:27;98416.88;;;28.64;40.80
28267;BME280;15525;45.568;5.448;2023-07-13T09:44:59;98408.41;;;28.83;40.55
28267;BME280;15525;45.568;5.448;2023-07-13T09:47:30;98419.31;;;28.72;39.58
28267;BME280;15525;45.568;5.448;2023-07-13T09:50:14;98433.94;;;28.76;39.87
28267;BME280;15525;45.568;5.448;2023-07-13T09:52:46;98425.63;;;28.06;42.22
28267;BME280;15525;45.568;5.448;2023-07-13T09:55:23;98425.78;;;27.91;42.69
28267;BME280;15525;45.568;5.448;2023-07-13T09:57:49;98414.41;;;28.55;40.47
28267;BME280;15525;45.568;5.448;2023-07-13T10:00:30;98421.13;;;28.58;40.97
28267;BME280;15525;45.568;5.448;2023-07-13T10:03:05;98431.09;;;28.69;41.28
28267;BME280;15525;45.568;5.448;2023-07-13T10:05:42;98425.16;;;28.64;39.67
28267;BME280;15525;45.568;5.448;2023-07-13T10:08:28;98430.13;;;27.92;41.35
28267;BME280;15525;45.568;5.448;2023-07-13T10:11:28;98430.81;;;27.11;42.89
28267;BME280;15525;45.568;5.448;2023-07-13T10:14:01;98433.31;;;28.23;41.11
28267;BME280;15525;45.568;5.448;2023-07-13T10:16:32;98429.47;;;28.65;38.26
28267;BME280;15525;45.568;5.448;2023-07-13T10:19:05;98428.50;;;29.27;39.21
28267;BME280;15525;45.568;5.448;2023-07-13T10:21:36;98431.25;;;29.23;37.33
28267;BME280;15525;45.568;5.448;2023-07-13T10:24:23;98431.59;;;29.18;38.20
28267;BME280;15525;45.568;5.448;2023-07-13T10:27:20;98426.66;;;29.41;37.60
28267;BME280;15525;45.568;5.448;2023-07-13T10:29:55;98417.38;;;29.63;38.04
28267;BME280;15525;45.568;5.448;2023-07-13T10:32:24;98438.38;;;29.78;37.45
28267;BME280;15525;45.568;5.448;2023-07-13T10:34:50;98432.47;;;29.29;39.47
28267;BME280;15525;45.568;5.448;2023-07-13T10:37:24;98423.31;;;30.40;37.40
28267;BME280;15525;45.568;5.448;2023-07-13T10:39:54;98432.03;;;29.74;35.87
28267;BME280;15525;45.568;5.448;2023-07-13T10:42:39;98434.47;;;29.83;36.11
28267;BME280;15525;45.568;5.448;2023-07-13T10:45:25;98427.84;;;30.01;35.86
28267;BME280;15525;45.568;5.448;2023-07-13T10:47:53;98427.34;;;29.82;36.05
28267;BME280;15525;45.568;5.448;2023-07-13T10:50:26;98424.72;;;29.45;38.55
28267;BME280;15525;45.568;5.448;2023-07-13T10:53:01;98437.53;;;28.80;38.40
28267;BME280;15525;45.568;5.448;2023-07-13T10:55:40;98429.97;;;28.74;37.01
28267;BME280;15525;45.568;5.448;2023-07-13T11:03:35;98395.31;;;30.49;35.82
28267;BME280;15525;45.568;5.448;2023-07-13T11:06:15;98404.22;;;30.11;34.70
28267;BME280;15525;45.568;5.448;2023-07-13T11:18:45;98375.97;;;29.60;34.25
28267;BME280;15525;45.568;5.448;2023-07-13T11:21:21;98393.44;;;28.84;36.75
28267;BME280;15525;45.568;5.448;2023-07-13T11:24:02;98383.41;;;30.34;33.44
28267;BME280;15525;45.568;5.448;2023-07-13T11:32:00;98365.28;;;30.44;33.01
28267;BME280;15525;45.568;5.448;2023-07-13T11:34:38;98357.75;;;30.34;32.18
28267;BME280;15525;45.568;5.448;2023-07-13T11:37:11;98352.69;;;30.57;33.54
28267;BME280;15525;45.568;5.448;2023-07-13T11:39:41;98344.00;;;31.49;31.94
28267;BME280;15525;45.568;5.448;2023-07-13T11:42:12;98353.44;;;31.83;31.18
28267;BME280;15525;45.568;5.448;2023-07-13T11:44:49;98372.25;;;32.30;31.23
28267;BME280;15525;45.568;5.448;2023-07-13T11:47:18;98370.25;;;32.34;31.86
28267;BME280;15525;45.568;5.448;2023-07-13T11:49:53;98382.88;;;32.42;30.03
28267;BME280;15525;45.568;5.448;2023-07-13T11:52:23;98367.13;;;32.90;30.39
28267;BME280;15525;45.568;5.448;2023-07-13T11:54:54;98363.75;;;31.65;30.05
28267;BME280;15525;45.568;5.448;2023-07-13T11:57:28;98372.50;;;31.32;29.94
28267;BME280;15525;45.568;5.448;2023-07-13T11:59:54;98363.66;;;31.97;29.27
28267;BME280;15525;45.568;5.448;2023-07-13T12:02:37;98369.13;;;32.14;29.28
28267;BME280;15525;45.568;5.448;2023-07-13T12:05:04;98356.47;;;32.13;29.21
28267;BME280;15525;45.568;5.448;2023-07-13T12:07:32;98347.56;;;32.50;28.45
28267;BME280;15525;45.568;5.448;2023-07-13T12:10:20;98342.44;;;30.71;29.63
28267;BME280;15525;45.568;5.448;2023-07-13T12:12:57;98336.53;;;30.90;30.02
28267;BME280;15525;45.568;5.448;2023-07-13T12:15:38;98327.56;;;32.14;30.25
28267;BME280;15525;45.568;5.448;2023-07-13T12:18:23;98320.88;;;32.05;30.01
28267;BME280;15525;45.568;5.448;2023-07-13T12:20:55;98334.19;;;32.41;28.60
28267;BME280;15525;45.568;5.448;2023-07-13T12:23:30;98331.84;;;32.33;27.76
28267;BME280;15525;45.568;5.448;2023-07-13T12:25:57;98344.03;;;31.18;30.04
28267;BME280;15525;45.568;5.448;2023-07-13T12:28:32;98330.22;;;32.35;27.91
28267;BME280;15525;45.568;5.448;2023-07-13T12:31:00;98339.50;;;32.73;27.97
28267;BME280;15525;45.568;5.448;2023-07-13T12:33:29;98329.78;;;33.46;29.65
28267;BME280;15525;45.568;5.448;2023-07-13T12:35:55;98326.72;;;34.04;27.05
28267;BME280;15525;45.568;5.448;2023-07-13T12:38:21;98323.28;;;33.93;27.08
28267;BME280;15525;45.568;5.448;2023-07-13T12:40:51;98322.97;;;33.50;26.63
28267;BME280;15525;45.568;5.448;2023-07-13T12:43:19;98317.03;;;33.85;28.87
28267;BME280;15525;45.568;5.448;2023-07-13T12:46:14;98331.75;;;32.47;26.69
28267;BME280;15525;45.568;5.448;2023-07-13T12:48:41;98322.34;;;32.27;28.30
28267;BME280;15525;45.568;5.448;2023-07-13T12:51:10;98336.50;;;32.46;25.93
28267;BME280;15525;45.568;5.448;2023-07-13T12:53:41;98334.75;;;32.01;27.65
28267;BME280;15525;45.568;5.448;2023-07-13T12:56:15;98329.19;;;32.73;26.36
28267;BME280;15525;45.568;5.448;2023-07-13T12:58:43;98326.25;;;32.98;26.59
28267;BME280;15525;45.568;5.448;2023-07-13T13:01:13;98316.81;;;33.29;26.08
28267;BME280;15525;45.568;5.448;2023-07-13T13:03:44;98331.09;;;32.87;27.71
28267;BME280;15525;45.568;5.448;2023-07-13T13:08:41;98317.84;;;33.82;25.77
28267;BME280;15525;45.568;5.448;2023-07-13T13:11:09;98318.69;;;34.09;24.81
28267;BME280;15525;45.568;5.448;2023-07-13T13:13:35;98317.66;;;34.30;26.15
28267;BME280;15525;45.568;5.448;2023-07-13T13:16:22;98322.13;;;34.77;26.17
28267;BME280;15525;45.568;5.448;2023-07-13T13:18:51;98311.91;;;34.14;24.92
28267;BME280;15525;45.568;5.448;2023-07-13T13:21:17;98314.75;;;33.77;24.48
28267;BME280;15525;45.568;5.448;2023-07-13T13:23:44;98322.19;;;34.17;25.04
28267;BME280;15525;45.568;5.448;2023-07-13T13:26:13;98320.44;;;33.22;25.63
28267;BME280;15525;45.568;5.448;2023-07-13T13:28:41;98323.31;;;31.85;28.12
28267;BME280;15525;45.568;5.448;2023-07-13T13:31:08;98322.66;;;32.43;26.50
28267;BME280;15525;45.568;5.448;2023-07-13T13:33:38;98327.59;;;33.23;26.37
28267;BME280;15525;45.568;5.448;2023-07-13T13:36:15;98333.59;;;31.95;25.70
28267;BME280;15525;45.568;5.448;2023-07-13T13:38:42;98323.03;;;31.55;25.65
28267;BME280;15525;45.568;5.448;2023-07-13T13:41:13;98330.00;;;32.70;25.65